Manorville, Pennsylvania
Current Conditions -  °F | °C
As of 7:55 AM on Friday 24 Oct 2014 (Local Time) from KBTP Reporting Station
Overcast Overcast  
Wind Chill: 39°   Ceiling: 200
Heat Index: 39°   Visibility: 0.75mi
Dew Point: 37°   Wind: 3mph
Humidity: 93%   Direction: 220°SW
Pressure: 30.11"   Gusts: NA
Location:  40.79°N, 79.52°W
Report Text: KBTP 241155Z AUTO 22003KT 3/4SM OVC002 04/03 A3011 RMK AO1 10050 20020 52010
Loading
Personal Weather Stations






























Interactive Weather Map
Tropical Storm Tracking
New forecast layout! Learn more

10-Day Weather Forecast

Advertisements
Track Severe Weather on mobile